Time;durP1;ratioP1;P1;durP2;ratioP2;P2;SDS_P1;SDS_P2;PMS_P1;PMS_P2;Temp;Humidity;BMP_temperature;BMP_pressure;BME280_temperature;BME280_humidity;BME280_pressure;Samples;Min_cycle;Max_cycle;Signal;HPM_P1;HPM_P2
2022/03/22 00:00:33;;;;;;;27.73;7.47;;;;;;;9.73;35.11;100916.66;5030242;28;20773;-74
2022/03/22 00:03:01;;;;;;;22.73;6.53;;;;;;;9.73;34.92;100910.34;5029292;28;20132;-74
2022/03/22 00:05:28;;;;;;;32.00;7.05;;;;;;;9.71;35.06;100916.06;5029280;28;20128;-74
2022/03/22 00:07:54;;;;;;;21.10;6.30;;;;;;;9.62;35.20;100912.91;5028952;28;20497;-74
2022/03/22 00:10:20;;;;;;;27.73;6.60;;;;;;;9.63;35.28;100908.25;5028717;28;20050;-73
2022/03/22 00:12:49;;;;;;;32.13;7.57;;;;;;;9.65;35.22;100900.63;5022486;28;20059;-74
2022/03/22 00:15:17;;;;;;;34.55;7.00;;;;;;;9.56;35.22;100892.00;5020307;28;20506;-75
2022/03/22 00:17:43;;;;;;;24.20;7.50;;;;;;;9.53;35.26;100895.22;5022367;28;20073;-74
2022/03/22 00:20:11;;;;;;;29.30;7.03;;;;;;;9.47;35.60;100897.00;5025879;28;20510;-73
2022/03/22 00:22:38;;;;;;;23.30;7.40;;;;;;;9.39;35.78;100897.41;5028280;28;20092;-74
2022/03/22 00:25:05;;;;;;;25.77;7.13;;;;;;;9.27;35.61;100872.81;5021261;28;20057;-74
2022/03/22 00:27:53;;;;;;;27.02;7.45;;;;;;;9.43;35.70;100897.72;5028070;28;20130;-74
2022/03/22 00:30:21;;;;;;;33.70;7.25;;;;;;;9.44;35.45;100888.47;5026805;28;20206;-74
2022/03/22 00:32:51;;;;;;;29.67;7.53;;;;;;;9.47;35.37;100886.09;5026812;28;20104;-75
2022/03/22 00:35:19;;;;;;;29.02;7.22;;;;;;;9.47;35.25;100890.72;5019295;28;20437;-73
2022/03/22 00:37:46;;;;;;;26.17;7.18;;;;;;;9.50;35.01;100893.78;5024488;28;20322;-74
2022/03/22 00:40:17;;;;;;;23.10;7.00;;;;;;;9.50;35.03;100898.44;5022485;28;20112;-75
2022/03/22 00:42:46;;;;;;;24.50;6.47;;;;;;;9.48;35.11;100895.94;5029682;28;20061;-75
2022/03/22 00:45:15;;;;;;;22.88;6.68;;;;;;;9.44;35.21;100886.56;5020320;28;20050;-75
2022/03/22 00:47:44;;;;;;;20.55;6.10;;;;;;;9.42;35.13;100891.44;5023208;28;20053;-76
2022/03/22 00:50:12;;;;;;;21.10;6.15;;;;;;;9.34;35.33;100883.63;5026578;28;20136;-75
2022/03/22 00:52:40;;;;;;;25.75;6.40;;;;;;;9.26;35.41;100876.63;5024977;28;20417;-73
2022/03/22 00:55:06;;;;;;;;;;;;;;;9.23;35.54;100879.84;5025473;28;20045;-73
2022/03/22 00:57:34;;;;;;;22.25;7.10;;;;;;;9.15;35.54;100872.03;5025500;28;19929;-73
2022/03/22 01:00:05;;;;;;;24.10;6.85;;;;;;;9.10;35.51;100866.44;5017811;28;20081;-73
2022/03/22 01:02:34;;;;;;;22.75;5.72;;;;;;;9.02;35.84;100862.19;5029339;28;20100;-72
2022/03/22 01:05:01;;;;;;;22.20;6.63;;;;;;;8.93;35.72;100864.44;5029594;28;20100;-73
2022/03/22 01:07:27;;;;;;;23.63;5.70;;;;;;;8.94;35.86;100863.38;5026902;28;20394;-74
2022/03/22 01:09:55;;;;;;;24.60;6.40;;;;;;;8.94;35.83;100864.22;5010221;28;20422;-73
2022/03/22 01:12:21;;;;;;;22.20;6.20;;;;;;;8.90;35.92;100856.75;5021366;28;20045;-74
2022/03/22 01:14:47;;;;;;;19.65;5.18;;;;;;;8.88;35.97;100862.41;5019541;28;20053;-73
2022/03/22 01:17:14;;;;;;;21.13;5.65;;;;;;;8.93;35.72;100869.91;5026098;28;20041;-73
2022/03/22 01:19:40;;;;;;;22.02;5.90;;;;;;;8.89;35.72;100866.81;5021756;28;20106;-73
2022/03/22 01:22:06;;;;;;;20.38;5.65;;;;;;;8.88;35.75;100865.16;5028450;28;20053;-72
2022/03/22 01:24:32;;;;;;;20.70;6.50;;;;;;;8.86;35.70;100866.47;5025921;28;20069;-73
2022/03/22 01:26:59;;;;;;;19.75;5.85;;;;;;;8.72;35.70;100857.69;5023930;28;20060;-75
2022/03/22 01:29:25;;;;;;;24.50;6.07;;;;;;;8.73;36.06;100868.34;5028141;28;20092;-75
2022/03/22 01:31:51;;;;;;;24.60;6.40;;;;;;;8.68;35.90;100859.22;5022564;28;20580;-75
2022/03/22 01:34:17;;;;;;;24.67;6.57;;;;;;;8.65;35.84;100861.38;5016986;28;20076;-75
2022/03/22 01:36:44;;;;;;;14.77;5.70;;;;;;;8.61;36.03;100867.50;5018079;28;20054;-75
2022/03/22 01:39:10;;;;;;;18.15;5.47;;;;;;;8.57;36.05;100858.16;5027452;28;20045;-75
2022/03/22 01:41:37;;;;;;;17.85;5.80;;;;;;;8.52;36.08;100864.31;5024662;28;20571;-74
2022/03/22 01:44:05;;;;;;;19.42;5.47;;;;;;;8.53;35.91;100857.78;5025409;28;20050;-75
2022/03/22 01:46:36;;;;;;;22.13;5.20;;;;;;;8.53;36.02;100859.69;5020440;28;20136;-74
2022/03/22 01:49:03;;;;;;;19.15;5.72;;;;;;;8.51;36.19;100863.50;5022381;28;20045;-75
2022/03/22 01:51:31;;;;;;;26.38;6.53;;;;;;;8.52;36.11;100867.03;5028611;28;20042;-74
2022/03/22 01:53:58;;;;;;;29.95;6.47;;;;;;;8.41;36.18;100856.91;5030962;28;20092;-73
2022/03/22 01:56:25;;;;;;;16.67;5.37;;;;;;;8.45;35.92;100858.13;5029894;28;20073;-74
2022/03/22 01:58:51;;;;;;;21.73;5.95;;;;;;;8.42;35.99;100858.56;5020971;28;20308;-74
2022/03/22 02:06:53;;;;;;;17.90;5.35;;;;;;;8.20;36.27;100854.50;5032155;28;20081;-75
2022/03/22 02:09:19;;;;;;;16.17;5.35;;;;;;;8.23;36.23;100847.75;5029435;28;20045;-73
2022/03/22 02:11:46;;;;;;;24.77;6.18;;;;;;;8.11;36.50;100849.59;5012612;28;20131;-74
2022/03/22 02:14:12;;;;;;;24.45;7.88;;;;;;;8.16;36.08;100841.59;5027634;28;20080;-74
2022/03/22 02:16:39;;;;;;;18.83;5.70;;;;;;;8.18;36.19;100836.72;5007451;28;20061;-74
2022/03/22 02:19:09;;;;;;;18.85;6.32;;;;;;;8.19;36.22;100841.13;5022287;28;20053;-74
2022/03/22 02:21:37;;;;;;;21.13;6.38;;;;;;;8.16;36.14;100839.69;5022906;28;20131;-75
2022/03/22 02:24:05;;;;;;;19.85;6.25;;;;;;;8.02;36.67;100835.50;5020929;28;20049;-74
2022/03/22 02:26:31;;;;;;;24.13;6.45;;;;;;;7.85;36.69;100838.88;5011471;28;20057;-74
2022/03/22 02:28:59;;;;;;;20.92;5.60;;;;;;;7.98;36.32;100837.03;5028243;28;20045;-75
2022/03/22 02:31:28;;;;;;;19.23;6.13;;;;;;;7.97;36.31;100832.66;5028869;28;20048;-75
2022/03/22 02:33:55;;;;;;;19.70;5.65;;;;;;;7.99;36.29;100834.09;5030148;28;20045;-73
2022/03/22 02:36:22;;;;;;;18.52;6.13;;;;;;;7.95;36.19;100832.88;5031708;28;20056;-73
2022/03/22 02:38:49;;;;;;;18.83;6.43;;;;;;;7.90;36.25;100832.75;5029082;28;20112;-72
2022/03/22 02:41:17;;;;;;;21.85;6.13;;;;;;;7.88;36.16;100826.69;5030500;28;20445;-73
2022/03/22 02:43:44;;;;;;;18.38;5.68;;;;;;;7.84;36.24;100822.78;5029972;28;20077;-73
2022/03/22 02:46:10;;;;;;;16.48;5.95;;;;;;;7.82;36.23;100822.19;5014047;28;20139;-73
2022/03/22 02:48:37;;;;;;;16.30;5.80;;;;;;;7.82;36.28;100824.91;5031118;28;20059;-73
2022/03/22 02:51:04;;;;;;;19.85;6.10;;;;;;;7.74;36.42;100826.88;5030735;28;20056;-73
2022/03/22 02:53:30;;;;;;;25.65;6.57;;;;;;;7.83;36.19;100816.50;5029034;28;20060;-73
2022/03/22 02:55:56;;;;;;;18.23;5.72;;;;;;;7.73;36.41;100811.59;5025107;28;20046;-73
2022/03/22 02:58:23;;;;;;;19.10;6.53;;;;;;;7.71;36.39;100813.75;5026150;28;20486;-73
2022/03/22 03:00:49;;;;;;;17.75;5.85;;;;;;;7.69;36.36;100807.69;5030273;28;20049;-73
2022/03/22 03:03:21;;;;;;;18.23;6.22;;;;;;;7.62;36.37;100807.78;5030227;28;20065;-73
2022/03/22 03:05:49;;;;;;;20.83;6.22;;;;;;;7.59;36.44;100813.69;5028884;28;20080;-73
2022/03/22 03:08:15;;;;;;;19.35;6.05;;;;;;;7.55;36.55;100817.09;5027892;28;20045;-74
2022/03/22 03:10:43;;;;;;;19.17;6.82;;;;;;;7.41;36.70;100806.38;5027463;28;20382;-74
2022/03/22 03:13:09;;;;;;;20.25;6.80;;;;;;;7.43;36.83;100826.03;5020502;28;20061;-75
2022/03/22 03:15:36;;;;;;;31.83;10.82;;;;;;;7.32;36.76;100811.31;5007560;28;20153;-75
2022/03/22 03:18:03;;;;;;;21.48;6.90;;;;;;;7.34;36.87;100819.25;5018665;28;20132;-74
2022/03/22 03:20:30;;;;;;;18.77;6.25;;;;;;;7.33;36.94;100814.84;5021181;28;20046;-73
2022/03/22 03:22:56;;;;;;;23.65;8.13;;;;;;;7.31;36.72;100814.25;5029182;28;20517;-73
2022/03/22 03:25:22;;;;;;;18.67;6.07;;;;;;;7.14;36.87;100787.66;5021005;28;20041;-73
2022/03/22 03:27:49;;;;;;;24.27;6.90;;;;;;;7.22;37.15;100811.84;5007081;28;20096;-74
2022/03/22 03:30:16;;;;;;;27.92;8.25;;;;;;;7.01;37.12;100798.69;5028625;28;20076;-73
2022/03/22 03:32:43;;;;;;;25.13;9.65;;;;;;;6.96;37.50;100793.97;5023878;28;20508;-74
2022/03/22 03:35:09;;;;;;;22.55;7.85;;;;;;;7.06;37.40;100791.53;5027435;28;20057;-74
2022/03/22 03:37:36;;;;;;;25.48;7.68;;;;;;;7.06;37.66;100799.69;5012155;28;20069;-73
2022/03/22 03:40:04;;;;;;;26.98;7.88;;;;;;;6.92;37.62;100779.97;5027107;28;20037;-73
2022/03/22 03:42:30;;;;;;;18.95;6.90;;;;;;;7.06;37.45;100799.69;5026100;28;20612;-73
2022/03/22 03:47:43;;;;;;;19.92;6.25;;;;;;;7.05;37.35;100800.75;5021755;28;20374;-73
2022/03/22 03:50:10;;;;;;;20.70;6.32;;;;;;;6.99;37.54;100801.66;5011555;28;20077;-73
2022/03/22 03:52:37;;;;;;;29.13;8.25;;;;;;;6.99;37.40;100800.81;5016604;28;20045;-74
2022/03/22 03:55:06;;;;;;;22.65;6.53;;;;;;;7.00;37.33;100797.03;5026136;28;20111;-74
2022/03/22 03:57:34;;;;;;;26.40;6.78;;;;;;;6.95;37.55;100790.41;5027264;28;20045;-73
2022/03/22 04:00:00;;;;;;;20.60;6.88;;;;;;;6.93;37.70;100792.50;5020157;28;20541;-74
2022/03/22 04:02:27;;;;;;;24.25;7.05;;;;;;;6.95;37.42;100781.41;5024143;28;20034;-73
2022/03/22 04:04:54;;;;;;;19.75;6.43;;;;;;;6.77;37.72;100760.50;5022275;28;20402;-74
2022/03/22 04:07:22;;;;;;;29.88;7.20;;;;;;;6.98;37.68;100785.56;5026248;28;20190;-73
2022/03/22 04:09:48;;;;;;;25.38;6.95;;;;;;;6.97;37.51;100781.19;5025414;28;20041;-74
2022/03/22 04:12:14;;;;;;;24.60;7.63;;;;;;;6.97;37.75;100790.19;5028400;28;20053;-74
2022/03/22 04:14:41;;;;;;;31.08;7.78;;;;;;;6.90;37.93;100795.69;5029471;28;20042;-75
2022/03/22 04:17:08;;;;;;;17.88;7.10;;;;;;;6.90;37.89;100792.13;5028848;28;20084;-75
2022/03/22 04:19:35;;;;;;;25.38;8.07;;;;;;;6.87;38.04;100784.44;5029028;28;20072;-75
2022/03/22 04:22:02;;;;;;;24.25;7.43;;;;;;;6.69;38.09;100766.22;5028612;28;20057;-75
2022/03/22 04:24:29;;;;;;;22.77;7.00;;;;;;;6.78;38.14;100771.13;5027771;28;20124;-75
2022/03/22 04:32:41;;;;;;;29.77;7.50;;;;;;;6.84;38.06;100780.25;5027996;28;20050;-74
2022/03/22 04:32:41;;;;;;;26.52;7.60;;;;;;;6.85;38.29;100773.75;5028319;28;20538;-76
2022/03/22 04:35:09;;;;;;;25.40;8.05;;;;;;;6.75;38.24;100776.19;5026252;28;20143;-75
2022/03/22 04:37:37;;;;;;;34.15;8.80;;;;;;;6.87;38.42;100773.56;5027177;28;20064;-75
2022/03/22 04:40:05;;;;;;;25.17;8.60;;;;;;;6.91;38.24;100767.44;5020181;28;20052;-76
2022/03/22 04:42:32;;;;;;;26.25;8.27;;;;;;;7.02;38.13;100776.72;5027304;28;20077;-74
2022/03/22 04:44:59;;;;;;;21.67;7.93;;;;;;;7.11;38.03;100784.59;5009656;28;20593;-75
2022/03/22 04:47:26;;;;;;;21.52;7.97;;;;;;;7.13;38.09;100780.56;5017760;28;20065;-74
2022/03/22 04:49:53;;;;;;;;;;;;;;;7.18;37.95;100785.31;4993239;28;20506;-74
2022/03/22 04:57:51;;;;;;;29.42;9.27;;;;;;;7.31;37.98;100785.16;5015398;28;20053;-75
2022/03/22 05:00:17;;;;;;;25.00;8.48;;;;;;;7.29;38.06;100787.28;5026171;28;20148;-74
2022/03/22 05:02:43;;;;;;;28.90;8.27;;;;;;;7.32;38.02;100792.25;5021004;28;20095;-71
2022/03/22 05:05:09;;;;;;;38.42;9.23;;;;;;;7.46;37.67;100790.19;5026796;28;20509;-71
2022/03/22 05:07:35;;;;;;;27.17;8.63;;;;;;;7.54;37.58;100793.66;5026376;28;20123;-72
2022/03/22 05:10:02;;;;;;;30.45;8.65;;;;;;;7.64;37.17;100788.47;5031237;28;20058;-74
2022/03/22 05:12:29;;;;;;;32.20;8.65;;;;;;;7.62;37.50;100787.88;5030988;28;20061;-75
2022/03/22 05:14:56;;;;;;;34.35;9.48;;;;;;;7.68;37.42;100786.13;5030814;28;20060;-71
2022/03/22 05:17:23;;;;;;;37.53;8.55;;;;;;;7.75;37.33;100801.31;5032780;28;20080;-71
2022/03/22 05:19:50;;;;;;;23.25;8.10;;;;;;;7.81;37.18;100791.41;5029523;28;20045;-71
2022/03/22 05:22:16;;;;;;;38.75;8.35;;;;;;;7.84;37.04;100788.19;5031335;28;20130;-71
2022/03/22 05:24:43;;;;;;;32.72;8.27;;;;;;;7.80;37.18;100776.97;5033061;28;20096;-71
2022/03/22 05:27:09;;;;;;;30.85;8.07;;;;;;;7.91;37.11;100791.66;5032739;28;20046;-71
2022/03/22 05:29:36;;;;;;;30.35;7.90;;;;;;;7.97;37.01;100778.19;5032971;28;20099;-71
2022/03/22 05:32:02;;;;;;;27.20;8.10;;;;;;;8.08;36.78;100785.56;5029652;28;20068;-72
2022/03/22 05:34:29;;;;;;;33.93;8.07;;;;;;;8.05;36.64;100775.94;5024281;28;20056;-71
2022/03/22 05:36:55;;;;;;;25.27;7.72;;;;;;;8.19;36.69;100776.53;5031326;28;20315;-72
2022/03/22 05:39:22;;;;;;;46.00;17.75;;;;;;;8.18;36.44;100772.16;5026836;28;20084;-72
2022/03/22 05:41:48;;;;;;;27.23;8.70;;;;;;;8.26;36.32;100781.06;5020060;28;20053;-72
2022/03/22 05:44:14;;;;;;;30.80;7.78;;;;;;;8.32;36.35;100778.22;5020352;28;20136;-72
2022/03/22 05:46:41;;;;;;;27.10;7.32;;;;;;;8.39;36.24;100786.31;5023641;28;20045;-71
2022/03/22 05:49:13;;;;;;;38.03;8.07;;;;;;;8.30;36.07;100772.19;5019174;28;20093;-72
2022/03/22 05:51:39;;;;;;;42.15;7.88;;;;;;;8.38;36.10;100785.47;5018231;28;20527;-66
2022/03/22 05:54:06;;;;;;;32.13;7.93;;;;;;;8.40;36.24;100784.38;5030210;28;20059;-67
2022/03/22 05:56:32;;;;;;;36.97;9.57;;;;;;;8.38;36.07;100782.72;5029683;28;20048;-68
2022/03/22 05:58:59;;;;;;;40.20;8.05;;;;;;;8.29;36.23;100745.16;5022374;28;20474;-69
2022/03/22 06:01:27;;;;;;;29.92;8.45;;;;;;;8.46;36.17;100764.38;5019592;28;20057;-68
2022/03/22 06:03:54;;;;;;;33.03;7.55;;;;;;;8.59;36.22;100776.97;5014537;28;20041;-69
2022/03/22 06:06:21;;;;;;;26.27;8.20;;;;;;;8.56;36.19;100770.09;5028632;28;20528;-69
2022/03/22 06:08:50;;;;;;;22.90;7.10;;;;;;;8.58;36.38;100761.69;5031139;28;20065;-68
2022/03/22 06:11:17;;;;;;;33.35;8.02;;;;;;;8.66;36.08;100777.66;5027689;28;20053;-69
2022/03/22 06:13:43;;;;;;;27.90;6.53;;;;;;;8.76;35.95;100777.09;5019083;28;20195;-68
2022/03/22 06:16:09;;;;;;;34.50;7.20;;;;;;;8.87;35.83;100769.94;5011265;28;20425;-68
2022/03/22 06:18:35;;;;;;;29.38;6.50;;;;;;;9.13;35.56;100773.19;5019638;28;20057;-68
2022/03/22 06:21:03;;;;;;;23.23;6.07;;;;;;;9.31;35.45;100783.97;5011336;28;20057;-68
2022/03/22 06:23:29;;;;;;;23.15;6.30;;;;;;;9.29;35.28;100771.63;5012715;28;20050;-68
2022/03/22 06:25:55;;;;;;;26.20;6.28;;;;;;;9.20;35.43;100771.19;5027830;28;20046;-69
2022/03/22 06:28:21;;;;;;;32.35;6.43;;;;;;;9.22;35.44;100775.34;5024640;28;20140;-69
2022/03/22 06:30:47;;;;;;;25.92;6.80;;;;;;;9.28;35.45;100769.97;5021867;28;20071;-69
2022/03/22 06:33:17;;;;;;;25.67;6.97;;;;;;;9.33;35.07;100772.78;5024444;28;20056;-66
2022/03/22 06:35:44;;;;;;;33.13;7.32;;;;;;;9.43;35.05;100767.53;5023775;28;20034;-69
2022/03/22 06:38:11;;;;;;;31.77;8.45;;;;;;;9.64;35.08;100762.44;5030815;28;20073;-67
2022/03/22 06:40:39;;;;;;;36.55;8.27;;;;;;;9.82;34.71;100763.31;5031201;28;20056;-72
2022/03/22 06:43:07;;;;;;;31.85;7.30;;;;;;;9.87;34.61;100758.75;5021604;28;20045;-68
2022/03/22 06:45:33;;;;;;;34.03;7.15;;;;;;;10.08;34.45;100761.88;5031181;28;20500;-68
2022/03/22 06:48:00;;;;;;;28.10;6.72;;;;;;;10.12;34.33;100759.44;5018842;28;20053;-69
2022/03/22 06:50:26;;;;;;;30.58;6.25;;;;;;;10.17;34.33;100757.63;5024544;28;20046;-67
2022/03/22 06:52:53;;;;;;;30.83;6.85;;;;;;;10.18;34.31;100753.00;5030944;28;20049;-69
2022/03/22 06:55:22;;;;;;;41.53;7.25;;;;;;;10.30;34.14;100756.47;5024687;28;20451;-73
2022/03/22 06:57:51;;;;;;;30.00;7.53;;;;;;;10.36;34.21;100747.25;5025829;28;20069;-72
2022/03/22 07:00:21;;;;;;;44.72;7.50;;;;;;;10.41;34.11;100738.34;5018891;28;20048;-71
2022/03/22 07:02:49;;;;;;;32.53;7.00;;;;;;;10.49;33.96;100726.97;5028291;28;20049;-74
2022/03/22 07:05:16;;;;;;;34.33;6.53;;;;;;;10.58;33.74;100729.28;5031277;28;20056;-73
2022/03/22 07:07:43;;;;;;;35.72;7.85;;;;;;;10.67;33.79;100746.91;5028911;28;20045;-72
2022/03/22 07:10:11;;;;;;;23.23;6.68;;;;;;;10.76;33.81;100736.34;5026786;28;20049;-73
2022/03/22 07:12:51;;;;;;;31.30;7.20;;;;;;;10.78;33.81;100726.00;5023595;28;20076;-72
2022/03/22 07:15:18;;;;;;;29.02;7.30;;;;;;;10.81;33.71;100722.75;5025235;28;20059;-71
2022/03/22 07:17:45;;;;;;;27.33;7.28;;;;;;;10.83;33.70;100723.31;5030465;28;20046;-72
2022/03/22 07:20:12;;;;;;;44.55;7.30;;;;;;;10.90;33.71;100717.66;5027997;28;20041;-72
2022/03/22 07:22:41;;;;;;;26.52;6.00;;;;;;;10.97;33.43;100698.31;5030770;28;20127;-72
2022/03/22 07:25:08;;;;;;;24.23;5.53;;;;;;;11.12;33.33;100709.44;5029398;28;20144;-71
2022/03/22 07:27:34;;;;;;;20.73;4.90;;;;;;;11.26;33.28;100700.84;5027957;28;20413;-71
2022/03/22 07:30:02;;;;;;;18.60;5.33;;;;;;;11.42;32.88;100708.13;5026467;28;20069;-70
2022/03/22 07:32:29;;;;;;;16.85;4.13;;;;;;;11.54;32.23;100710.69;5020491;28;20053;-70
2022/03/22 07:34:58;;;;;;;21.63;4.57;;;;;;;11.60;32.11;100720.59;5029706;28;20132;-71
2022/03/22 07:37:24;;;;;;;17.15;4.25;;;;;;;11.74;32.01;100715.56;5030918;28;20045;-72
2022/03/22 07:39:51;;;;;;;11.45;3.42;;;;;;;11.84;31.64;100731.25;5026029;28;20391;-71
2022/03/22 07:42:17;;;;;;;16.45;3.83;;;;;;;11.92;31.19;100721.72;5028719;28;20053;-69
2022/03/22 07:44:43;;;;;;;16.95;3.38;;;;;;;12.09;30.99;100729.81;5030557;28;20046;-69
2022/03/22 07:47:11;;;;;;;16.67;3.42;;;;;;;12.18;30.76;100722.78;5022886;28;20107;-69
2022/03/22 07:55:10;;;;;;;16.27;3.55;;;;;;;12.44;30.19;100711.97;5026079;28;20053;-67
2022/03/22 07:57:36;;;;;;;15.13;4.18;;;;;;;12.56;29.72;100717.25;5016663;28;20143;-68
2022/03/22 08:00:04;;;;;;;25.42;3.50;;;;;;;12.63;29.38;100711.53;5018920;28;20072;-68
2022/03/22 08:02:35;;;;;;;20.05;4.63;;;;;;;12.72;29.47;100714.59;5015961;28;20065;-69
2022/03/22 08:05:01;;;;;;;17.27;3.88;;;;;;;12.78;29.20;100708.03;5026348;28;20072;-65
2022/03/22 08:07:28;;;;;;;10.63;3.42;;;;;;;12.93;28.94;100722.91;5025566;28;20045;-66
2022/03/22 08:09:54;;;;;;;12.98;3.60;;;;;;;12.99;28.74;100716.38;5026475;28;20046;-64
2022/03/22 08:12:20;;;;;;;22.63;4.05;;;;;;;13.14;28.59;100724.66;5030431;28;20563;-64
2022/03/22 08:14:47;;;;;;;17.65;3.03;;;;;;;13.28;28.32;100713.97;5024299;28;20524;-65
2022/03/22 08:17:13;;;;;;;17.77;3.33;;;;;;;13.40;28.00;100721.97;5019005;28;20058;-66
2022/03/22 08:19:40;;;;;;;13.98;2.97;;;;;;;13.52;27.51;100704.44;5022390;28;20089;-65
2022/03/22 08:22:06;;;;;;;16.63;3.00;;;;;;;13.60;27.00;100693.72;5026674;28;20045;-66
2022/03/22 08:24:33;;;;;;;12.77;3.00;;;;;;;13.68;25.94;100694.31;5029319;28;20048;-66
2022/03/22 08:26:58;;;;;;;23.23;2.83;;;;;;;13.71;24.96;100694.56;5030310;28;20413;-67
2022/03/22 08:29:25;;;;;;;12.82;3.67;;;;;;;13.75;24.44;100672.84;5025127;28;20440;-65
2022/03/22 08:31:52;;;;;;;18.92;3.03;;;;;;;13.80;24.51;100683.84;5000051;28;20054;-66
2022/03/22 08:34:19;;;;;;;18.35;2.95;;;;;;;13.88;24.58;100676.97;5028906;28;20521;-66
2022/03/22 08:36:46;;;;;;;17.45;3.47;;;;;;;13.98;24.37;100682.47;5021498;28;20049;-66
2022/03/22 08:39:12;;;;;;;14.30;3.43;;;;;;;14.09;24.27;100690.72;5022251;28;20473;-66
2022/03/22 08:41:39;;;;;;;14.63;3.47;;;;;;;14.19;24.04;100668.69;5019275;28;20112;-66
2022/03/22 08:44:05;;;;;;;20.08;3.47;;;;;;;14.26;24.25;100669.22;5023673;28;20049;-65
2022/03/22 08:46:31;;;;;;;13.98;3.25;;;;;;;14.44;24.12;100670.56;5028080;28;20065;-66
2022/03/22 08:48:58;;;;;;;16.55;3.10;;;;;;;14.47;23.96;100660.91;5027634;28;20046;-67
2022/03/22 08:51:25;;;;;;;17.23;3.23;;;;;;;14.53;24.30;100662.56;5033786;28;20061;-67
2022/03/22 08:53:54;;;;;;;18.05;3.10;;;;;;;14.63;24.33;100649.84;5033106;28;20680;-67
2022/03/22 08:56:22;;;;;;;16.02;3.17;;;;;;;14.73;24.13;100644.34;5030011;28;20050;-65
2022/03/22 08:58:53;;;;;;;13.30;2.95;;;;;;;14.88;24.19;100640.69;5026915;28;20420;-68
2022/03/22 09:01:27;;;;;;;17.05;3.05;;;;;;;14.96;24.09;100622.75;5028115;28;20148;-69
2022/03/22 09:06:39;;;;;;;12.10;2.45;;;;;;;15.11;24.16;100635.63;5021776;28;20417;-67
2022/03/22 09:09:06;;;;;;;19.70;2.63;;;;;;;15.20;24.07;100633.88;5023303;28;20088;-67
2022/03/22 09:11:36;;;;;;;16.08;2.67;;;;;;;15.29;23.97;100634.09;5032791;28;20089;-67
2022/03/22 09:14:03;;;;;;;9.52;2.65;;;;;;;15.37;23.84;100603.19;5031707;28;20054;-67
2022/03/22 09:16:31;;;;;;;19.65;2.60;;;;;;;15.43;24.07;100607.53;5025635;28;20128;-67
2022/03/22 09:18:57;;;;;;;9.35;2.42;;;;;;;15.57;24.16;100618.75;5030635;28;20052;-66
2022/03/22 09:21:24;;;;;;;17.83;3.30;;;;;;;15.64;24.36;100612.06;5031233;28;20583;-67
2022/03/22 09:23:50;;;;;;;12.43;3.22;;;;;;;15.81;24.13;100614.41;5032751;28;20506;-67
2022/03/22 09:26:17;;;;;;;11.73;2.70;;;;;;;15.94;24.09;100613.75;5023759;28;20053;-67
2022/03/22 09:28:43;;;;;;;10.55;2.33;;;;;;;16.10;24.26;100613.59;5017634;28;20042;-65
2022/03/22 09:31:09;;;;;;;12.05;2.70;;;;;;;16.23;24.14;100601.84;5021186;28;20045;-66
2022/03/22 09:33:37;;;;;;;13.07;3.35;;;;;;;16.36;23.79;100605.00;5030018;28;20048;-67
2022/03/22 09:36:03;;;;;;;8.82;2.65;;;;;;;16.53;23.82;100607.31;5020120;28;20087;-68
2022/03/22 09:38:31;;;;;;;13.27;3.27;;;;;;;16.61;23.28;100592.03;5023272;28;20501;-66
2022/03/22 09:40:59;;;;;;;16.20;2.45;;;;;;;16.70;23.33;100604.03;5022196;28;20050;-66
2022/03/22 09:43:28;;;;;;;14.18;2.90;;;;;;;16.68;23.15;100576.72;5028656;28;20046;-72
2022/03/22 09:45:57;;;;;;;10.43;2.65;;;;;;;16.89;23.45;100595.75;5022831;28;20038;-73
2022/03/22 09:48:24;;;;;;;11.70;2.70;;;;;;;17.08;23.32;100600.50;5021748;28;20096;-73
2022/03/22 09:53:35;;;;;;;21.48;3.30;;;;;;;17.37;22.86;100589.28;5024115;28;20053;-68
2022/03/22 09:56:01;;;;;;;12.40;2.60;;;;;;;17.50;23.06;100579.38;5026636;28;20056;-73
2022/03/22 09:58:29;;;;;;;18.80;3.10;;;;;;;17.69;23.18;100587.63;5018851;28;20293;-74
2022/03/22 10:00:55;;;;;;;17.35;2.75;;;;;;;17.69;21.96;100575.72;5021241;28;20059;-75
2022/03/22 10:03:21;;;;;;;17.70;2.72;;;;;;;17.67;23.15;100565.00;5027710;28;20421;-74
2022/03/22 10:05:57;;;;;;;15.57;2.20;;;;;;;17.85;22.07;100579.03;5028310;28;20041;-74
2022/03/22 10:08:24;;;;;;;10.20;2.22;;;;;;;18.00;22.00;100587.06;5030570;28;20069;-68
2022/03/22 10:10:54;;;;;;;11.48;2.25;;;;;;;18.10;21.37;100579.69;5031487;28;20399;-68
2022/03/22 10:13:20;;;;;;;10.55;2.67;;;;;;;18.28;22.02;100589.88;5021675;28;20042;-69
2022/03/22 10:15:47;;;;;;;13.38;2.45;;;;;;;18.47;21.94;100585.31;5020723;28;20456;-68
2022/03/22 10:18:13;;;;;;;12.60;2.50;;;;;;;18.60;22.05;100575.38;5027569;28;20060;-69
2022/03/22 10:20:41;;;;;;;23.90;2.40;;;;;;;18.78;21.72;100581.88;5022158;28;20049;-68
2022/03/22 10:23:12;;;;;;;;;;;;;;;18.86;21.67;100586.72;5031934;28;20081;-68
2022/03/22 10:25:39;;;;;;;12.43;2.50;;;;;;;18.99;21.91;100582.28;5024517;28;19929;-69
2022/03/22 10:28:06;;;;;;;;;;;;;;;19.10;21.55;100583.69;5032070;28;20505;-69
2022/03/22 10:30:34;;;;;;;15.80;2.60;;;;;;;19.18;21.04;100589.59;5030543;28;19929;-70
2022/03/22 10:33:02;;;;;;;12.70;2.50;;;;;;;19.24;20.16;100578.06;5032120;28;20077;-69
2022/03/22 10:35:30;;;;;;;11.68;2.70;;;;;;;19.35;20.26;100573.09;5030151;28;20052;-69
2022/03/22 10:37:58;;;;;;;12.02;2.85;;;;;;;19.43;19.93;100568.72;5032282;28;20056;-69
2022/03/22 10:40:27;;;;;;;14.43;2.40;;;;;;;19.48;19.76;100568.63;5030724;28;20053;-69
2022/03/22 10:42:56;;;;;;;16.17;2.65;;;;;;;19.53;20.11;100551.84;5031813;28;20401;-69
2022/03/22 10:45:22;;;;;;;12.73;2.90;;;;;;;19.61;19.89;100564.13;5030097;28;20057;-69
2022/03/22 10:47:48;;;;;;;14.27;2.67;;;;;;;19.67;19.39;100560.09;5031011;28;20132;-68
2022/03/22 10:50:15;;;;;;;11.80;3.10;;;;;;;19.73;18.79;100555.19;5030506;28;20045;-69
2022/03/22 10:52:49;;;;;;;9.80;2.28;;;;;;;19.84;19.57;100545.47;5031204;28;20053;-69
2022/03/22 10:55:19;;;;;;;11.50;2.33;;;;;;;19.96;19.89;100544.09;5029079;28;20115;-68
2022/03/22 10:57:48;;;;;;;10.52;2.30;;;;;;;19.91;18.51;100535.88;5030263;28;20131;-69
2022/03/22 11:00:15;;;;;;;13.85;2.75;;;;;;;19.92;18.19;100543.91;5030337;28;20644;-69
2022/03/22 11:02:42;;;;;;;;;;;;;;;19.97;18.72;100545.72;5027890;28;20046;-69
2022/03/22 11:05:09;;;;;;;17.35;2.78;;;;;;;20.05;18.62;100539.38;5031179;28;19925;-70
2022/03/22 11:07:40;;;;;;;23.20;3.55;;;;;;;20.14;18.16;100547.75;5031654;28;20057;-69
2022/03/22 11:10:06;;;;;;;9.65;2.47;;;;;;;20.24;18.18;100538.31;5031612;28;20080;-68
2022/03/22 11:12:34;;;;;;;19.08;2.58;;;;;;;20.36;18.20;100537.69;5027412;28;20045;-69
2022/03/22 11:15:02;;;;;;;9.93;2.30;;;;;;;20.47;18.36;100535.41;5031648;28;20049;-68
2022/03/22 11:17:34;;;;;;;8.55;2.35;;;;;;;20.62;17.50;100537.72;5031325;28;20192;-69
2022/03/22 11:20:04;;;;;;;7.15;2.20;;;;;;;20.72;17.94;100531.00;5029223;28;20076;-68
2022/03/22 11:22:32;;;;;;;11.23;2.80;;;;;;;20.94;17.51;100535.63;5023947;28;20052;-68
2022/03/22 11:25:09;;;;;;;15.57;2.83;;;;;;;21.18;16.56;100525.13;5014331;28;20054;-69
2022/03/22 11:27:38;;;;;;;10.35;2.45;;;;;;;21.42;16.56;100538.50;5029707;28;20128;-69
2022/03/22 11:30:06;;;;;;;10.32;2.53;;;;;;;21.72;16.47;100529.47;5028122;28;20049;-69
2022/03/22 11:35:25;;;;;;;14.30;2.30;;;;;;;22.37;15.56;100520.94;5031258;28;20099;-68
2022/03/22 11:38:00;;;;;;;9.63;2.35;;;;;;;22.61;15.54;100519.47;5031333;28;20077;-69
2022/03/22 11:43:15;;;;;;;19.20;3.08;;;;;;;23.19;15.42;100516.88;5030988;28;20045;-69
2022/03/22 11:45:48;;;;;;;11.45;3.00;;;;;;;23.40;15.00;100521.59;5031099;28;20267;-69
2022/03/22 11:48:16;;;;;;;12.35;3.35;;;;;;;23.49;15.08;100513.13;5030579;28;20076;-69
2022/03/22 11:50:44;;;;;;;9.98;3.08;;;;;;;23.61;14.86;100512.31;5028342;28;20050;-69
2022/03/22 11:53:17;;;;;;;12.60;3.78;;;;;;;23.88;14.87;100519.22;5030839;28;20060;-69
2022/03/22 11:55:49;;;;;;;9.70;3.10;;;;;;;23.90;14.45;100511.31;5030709;28;20049;-69
2022/03/22 11:58:15;;;;;;;11.45;2.85;;;;;;;24.15;14.79;100511.31;5028315;28;20447;-69